createdAt,value
2019-05-07T00:01:43.988Z,5.78
2019-05-07T00:04:12.959Z,5.85
2019-05-07T00:06:43.415Z,5.95
2019-05-07T00:09:13.776Z,5.60
2019-05-07T00:11:42.771Z,5.80
2019-05-07T00:14:12.575Z,5.60
2019-05-07T00:16:42.317Z,5.50
2019-05-07T00:19:12.901Z,5.83
2019-05-07T00:21:42.408Z,5.12
2019-05-07T00:24:13.237Z,5.90
2019-05-07T00:26:43.063Z,5.40
2019-05-07T00:29:12.963Z,5.22
2019-05-07T00:31:42.138Z,4.60
2019-05-07T00:34:12.606Z,4.92
2019-05-07T00:36:59.228Z,5.17
2019-05-07T00:39:32.837Z,5.37
2019-05-07T00:42:22.056Z,5.03
2019-05-07T00:44:55.215Z,5.22
2019-05-07T00:47:23.978Z,5.15
2019-05-07T00:49:53.346Z,4.80
2019-05-07T00:52:22.582Z,4.65
2019-05-07T00:54:53.133Z,4.85
2019-05-07T00:57:22.900Z,4.90
2019-05-07T00:59:52.464Z,4.70
2019-05-07T01:02:22.833Z,4.50
2019-05-07T01:04:53.188Z,4.70
2019-05-07T01:07:22.963Z,4.45
2019-05-07T01:09:52.377Z,4.67
2019-05-07T01:12:22.203Z,4.47
2019-05-07T01:14:52.839Z,4.50
2019-05-07T01:17:22.667Z,4.50
2019-05-07T01:19:53.224Z,4.50
2019-05-07T01:22:22.369Z,3.72
2019-05-07T01:24:52.607Z,4.08
2019-05-07T01:27:22.650Z,4.50
2019-05-07T01:29:52.757Z,4.42
2019-05-07T01:32:23.213Z,4.40
2019-05-07T01:34:53.535Z,4.25
2019-05-07T01:37:23.116Z,4.30
2019-05-07T01:39:52.957Z,3.90
2019-05-07T01:42:22.199Z,4.30
2019-05-07T01:44:52.860Z,4.08
2019-05-07T01:47:23.534Z,4.55
2019-05-07T01:49:52.779Z,3.70
2019-05-07T01:52:22.744Z,4.12
2019-05-07T01:54:52.277Z,4.03
2019-05-07T01:57:22.998Z,3.85
2019-05-07T01:59:52.773Z,4.10
2019-05-07T02:02:23.336Z,3.72
2019-05-07T02:04:59.496Z,3.70
2019-05-07T02:07:35.941Z,3.50
2019-05-07T02:10:07.185Z,3.72
2019-05-07T02:12:37.348Z,3.47
2019-05-07T02:15:07.217Z,4.00
2019-05-07T02:17:35.990Z,3.55
2019-05-07T02:20:06.558Z,3.77
2019-05-07T02:22:35.325Z,4.00
2019-05-07T02:25:04.694Z,3.75
2019-05-07T02:27:33.451Z,3.58
2019-05-07T02:30:04.187Z,3.55
2019-05-07T02:32:33.577Z,3.22
2019-05-07T02:35:04.081Z,3.47
2019-05-07T02:37:47.118Z,4.08
2019-05-07T02:40:08.286Z,3.25
2019-05-07T02:42:37.244Z,3.12
2019-05-07T02:45:27.000Z,3.92
2019-05-07T02:47:55.755Z,3.00
2019-05-07T02:50:29.200Z,3.37
2019-05-07T02:53:05.592Z,3.17
2019-05-07T02:55:43.444Z,3.40
2019-05-07T02:58:13.715Z,3.30
2019-05-07T03:00:43.380Z,3.10
2019-05-07T03:03:13.892Z,3.47
2019-05-07T03:05:43.365Z,3.17
2019-05-07T03:08:13.473Z,2.98
2019-05-07T03:10:43.460Z,3.08
2019-05-07T03:13:13.684Z,3.17
2019-05-07T03:15:43.622Z,2.95
2019-05-07T03:18:13.854Z,3.00
2019-05-07T03:20:53.275Z,3.17
2019-05-07T03:23:22.910Z,3.10
2019-05-07T03:25:55.802Z,2.60
2019-05-07T03:28:26.077Z,2.90
2019-05-07T03:30:57.201Z,2.92
2019-05-07T03:33:27.750Z,3.40
2019-05-07T03:35:58.082Z,2.90
2019-05-07T03:38:26.855Z,2.52
2019-05-07T03:40:55.613Z,2.70
2019-05-07T03:43:25.958Z,2.40
2019-05-07T03:45:59.537Z,2.65
2019-05-07T03:48:32.991Z,2.30
2019-05-07T03:51:03.395Z,2.83
2019-05-07T03:53:33.546Z,2.27
2019-05-07T03:56:04.059Z,2.50
2019-05-07T03:58:33.925Z,2.70
2019-05-07T04:01:04.223Z,2.40
2019-05-07T04:03:34.139Z,2.67
2019-05-07T04:06:03.844Z,2.22
2019-05-07T04:08:33.587Z,2.50
2019-05-07T04:11:03.634Z,2.27
2019-05-07T04:13:33.662Z,2.55
2019-05-07T04:16:04.025Z,2.67
2019-05-07T04:18:33.448Z,2.40
2019-05-07T04:21:03.721Z,2.50
2019-05-07T04:23:34.159Z,2.60
2019-05-07T04:26:04.788Z,2.80
2019-05-07T04:28:35.144Z,2.50
2019-05-07T04:31:04.123Z,2.60
2019-05-07T04:33:37.296Z,1.92
2019-05-07T04:36:14.289Z,2.20
2019-05-07T04:38:43.962Z,1.98
2019-05-07T04:41:13.870Z,2.20
2019-05-07T04:43:43.456Z,2.30
2019-05-07T04:46:14.377Z,2.35
2019-05-07T04:48:43.895Z,2.75
2019-05-07T04:51:14.550Z,2.15
2019-05-07T04:53:43.397Z,2.00
2019-05-07T04:56:14.013Z,2.33
2019-05-07T04:58:43.307Z,2.67
2019-05-07T05:01:14.096Z,2.27
2019-05-07T05:03:43.654Z,1.90
2019-05-07T05:06:13.672Z,2.33
2019-05-07T05:08:43.579Z,1.90
2019-05-07T05:11:13.424Z,2.30
2019-05-07T05:13:44.507Z,2.35
2019-05-07T05:16:25.854Z,2.40
2019-05-07T05:18:55.814Z,2.12
2019-05-07T05:21:38.299Z,2.35
2019-05-07T05:24:14.408Z,2.10
2019-05-07T05:26:43.180Z,2.30
2019-05-07T05:29:12.189Z,2.58
2019-05-07T05:31:42.184Z,2.33
2019-05-07T05:34:12.961Z,2.40
2019-05-07T05:36:42.454Z,2.02
2019-05-07T05:39:13.147Z,2.30
2019-05-07T05:41:44.040Z,2.08
2019-05-07T05:44:14.388Z,2.10
2019-05-07T05:46:43.188Z,2.15
2019-05-07T05:49:12.274Z,2.40
2019-05-07T05:51:43.064Z,1.95
2019-05-07T05:54:25.282Z,1.75
2019-05-07T05:57:07.657Z,4.25
2019-05-07T05:59:49.211Z,2.17
2019-05-07T06:02:07.652Z,3.10
2019-05-07T06:04:54.142Z,3.35
2019-05-07T06:07:33.201Z,2.62
2019-05-07T06:10:06.223Z,2.58
2019-05-07T06:12:39.537Z,2.10
2019-05-07T06:15:24.760Z,1.50
2019-05-07T06:17:57.812Z,1.75
2019-05-07T06:20:33.873Z,1.60
2019-05-07T06:23:19.066Z,1.80
2019-05-07T06:25:48.725Z,1.70
2019-05-07T06:28:17.492Z,1.90
2019-05-07T06:30:46.264Z,1.90
2019-05-07T06:33:15.038Z,1.50
2019-05-07T06:35:43.804Z,1.90
2019-05-07T06:38:13.569Z,1.50
2019-05-07T06:40:46.607Z,1.72
2019-05-07T06:43:16.935Z,1.40
2019-05-07T06:45:47.273Z,1.50
2019-05-07T06:48:16.045Z,1.20
2019-05-07T06:50:56.940Z,1.40
2019-05-07T06:53:30.000Z,1.62
2019-05-07T06:55:59.986Z,1.45
2019-05-07T06:58:32.563Z,1.42
2019-05-07T07:01:17.847Z,1.10
2019-05-07T07:04:02.402Z,1.00
2019-05-07T07:06:52.344Z,1.10
2019-05-07T07:09:25.267Z,1.35
2019-05-07T07:12:07.634Z,1.17
2019-05-07T07:14:36.397Z,1.25
2019-05-07T07:17:05.168Z,1.20
2019-05-07T07:19:36.131Z,1.17
2019-05-07T07:22:04.449Z,1.10
2019-05-07T07:24:33.213Z,1.35
2019-05-07T07:27:02.489Z,0.93
2019-05-07T07:29:32.866Z,1.12
2019-05-07T07:32:03.205Z,1.17
2019-05-07T07:34:33.549Z,1.75
2019-05-07T07:37:18.788Z,1.87
2019-05-07T07:39:47.552Z,1.98
2019-05-07T07:42:16.324Z,1.98
2019-05-07T07:44:45.093Z,2.10
2019-05-07T07:47:13.857Z,2.10
2019-05-07T07:49:42.628Z,2.10
2019-05-07T07:52:12.222Z,2.62
2019-05-07T07:54:42.880Z,2.20
2019-05-07T07:57:13.054Z,2.50
2019-05-07T07:59:43.386Z,2.52
2019-05-07T08:02:28.869Z,2.40
2019-05-07T08:04:57.633Z,2.80
2019-05-07T08:07:26.395Z,2.40
2019-05-07T08:09:55.173Z,2.37
2019-05-07T08:12:23.942Z,2.50
2019-05-07T08:14:52.716Z,2.60
2019-05-07T08:17:22.359Z,2.77
2019-05-07T08:19:52.063Z,2.87
2019-05-07T08:22:22.621Z,3.37
2019-05-07T08:24:51.884Z,3.45
2019-05-07T08:27:22.210Z,3.70
2019-05-07T08:29:52.431Z,3.70
2019-05-07T08:32:39.131Z,4.05
2019-05-07T08:35:15.404Z,3.75
2019-05-07T08:37:44.180Z,3.92
2019-05-07T08:40:13.038Z,3.80
2019-05-07T08:42:41.953Z,4.15
2019-05-07T08:45:21.761Z,3.55
2019-05-07T08:47:52.555Z,3.60
2019-05-07T08:50:22.233Z,6.45
2019-05-07T08:52:52.179Z,3.60
2019-05-07T08:55:21.762Z,3.77
2019-05-07T08:57:52.116Z,3.98
2019-05-07T09:00:22.972Z,3.10
2019-05-07T09:02:52.462Z,3.55
2019-05-07T09:05:22.087Z,3.40
2019-05-07T09:07:51.727Z,3.70
2019-05-07T09:10:21.825Z,3.80
2019-05-07T09:12:52.450Z,3.55
2019-05-07T09:15:22.629Z,3.65
2019-05-07T09:17:52.649Z,3.30
2019-05-07T09:20:22.861Z,3.27
2019-05-07T09:22:51.910Z,3.05
2019-05-07T09:25:22.266Z,3.00
2019-05-07T09:27:52.844Z,3.00
2019-05-07T09:30:29.458Z,3.12
2019-05-07T09:33:05.475Z,3.02
2019-05-07T09:35:39.901Z,2.80
2019-05-07T09:38:08.726Z,2.50
2019-05-07T09:40:37.489Z,2.67
2019-05-07T09:43:06.255Z,2.70
2019-05-07T09:45:35.016Z,2.30
2019-05-07T09:48:03.886Z,2.42
2019-05-07T09:50:32.735Z,2.60
2019-05-07T09:53:02.315Z,2.22
2019-05-07T09:55:32.522Z,2.35
2019-05-07T09:58:01.990Z,2.00
2019-05-07T10:00:32.031Z,1.98
2019-05-07T10:03:00.904Z,2.05
2019-05-07T10:05:31.949Z,1.95
2019-05-07T10:08:01.865Z,2.02
2019-05-07T10:10:32.729Z,1.87
2019-05-07T10:13:08.478Z,1.80
2019-05-07T10:15:37.437Z,1.82
2019-05-07T10:20:42.328Z,1.62
2019-05-07T10:23:16.824Z,1.30
2019-05-07T10:25:50.908Z,1.70
2019-05-07T10:28:22.589Z,1.95
2019-05-07T10:30:52.117Z,1.70
2019-05-07T10:33:22.858Z,1.50
2019-05-07T10:35:52.916Z,1.80
2019-05-07T10:38:21.931Z,1.80
2019-05-07T10:40:50.666Z,1.70
2019-05-07T10:43:19.527Z,1.80
2019-05-07T10:45:51.969Z,1.70
2019-05-07T10:48:33.644Z,1.60
2019-05-07T10:51:06.776Z,2.10
2019-05-07T10:53:35.513Z,1.67
2019-05-07T10:56:04.322Z,2.02
2019-05-07T10:58:33.077Z,1.92
2019-05-07T11:01:02.948Z,1.70
2019-05-07T11:03:32.374Z,1.87
2019-05-07T11:06:01.304Z,1.70
2019-05-07T11:08:32.672Z,1.52
2019-05-07T11:11:02.956Z,1.70
2019-05-07T11:13:31.544Z,1.67
2019-05-07T11:16:02.442Z,1.72
2019-05-07T11:18:32.826Z,1.60
2019-05-07T11:21:03.084Z,1.95
2019-05-07T11:23:34.051Z,1.72
2019-05-07T11:26:02.813Z,1.70
2019-05-07T11:28:32.301Z,1.70
2019-05-07T11:31:02.121Z,1.55
2019-05-07T11:33:32.549Z,1.90
2019-05-07T11:36:02.047Z,1.98
2019-05-07T11:38:33.131Z,2.02
2019-05-07T11:41:02.276Z,1.80
2019-05-07T11:43:32.866Z,1.90
2019-05-07T11:46:09.084Z,2.35
2019-05-07T11:48:39.407Z,2.40
2019-05-07T11:51:15.481Z,2.52
2019-05-07T11:54:02.140Z,2.30
2019-05-07T11:56:32.776Z,2.67
2019-05-07T11:59:02.651Z,3.00
2019-05-07T12:01:44.009Z,3.08
2019-05-07T12:04:02.491Z,3.15
2019-05-07T12:06:32.152Z,4.90
2019-05-07T12:09:02.891Z,5.50
2019-05-07T12:11:32.196Z,5.53
2019-05-07T12:14:02.027Z,6.75
2019-05-07T12:16:32.118Z,7.42
2019-05-07T12:19:02.229Z,7.97
2019-05-07T12:21:31.349Z,9.58
2019-05-07T12:24:02.052Z,9.10
2019-05-07T12:26:31.558Z,9.60
2019-05-07T12:29:00.340Z,11.55
2019-05-07T12:31:42.771Z,14.30
2019-05-07T12:34:16.456Z,14.58
2019-05-07T12:36:45.215Z,14.03
2019-05-07T12:39:14.032Z,13.13
2019-05-07T12:41:42.868Z,13.13
2019-05-07T12:44:12.951Z,12.33
2019-05-07T12:46:42.375Z,12.20
2019-05-07T12:49:11.965Z,13.45
2019-05-07T12:51:42.787Z,13.93
2019-05-07T12:54:19.112Z,12.33
2019-05-07T12:56:47.945Z,12.68
2019-05-07T12:59:16.727Z,11.63
2019-05-07T13:01:52.773Z,11.97
2019-05-07T13:04:23.344Z,11.35
2019-05-07T13:07:02.502Z,10.85
2019-05-07T13:09:32.500Z,10.95
2019-05-07T13:12:03.040Z,10.18
2019-05-07T13:14:31.856Z,10.88
2019-05-07T13:17:02.619Z,10.58
2019-05-07T13:19:32.906Z,10.93
2019-05-07T13:22:02.315Z,10.70
2019-05-07T13:24:32.137Z,9.83
2019-05-07T13:27:03.101Z,8.75
2019-05-07T13:29:32.646Z,9.08
2019-05-07T13:32:03.592Z,8.30
2019-05-07T13:34:34.173Z,7.55
2019-05-07T13:37:04.845Z,7.90
2019-05-07T13:39:35.590Z,7.95
2019-05-07T13:42:12.678Z,8.18
2019-05-07T13:44:43.810Z,7.28
2019-05-07T13:47:26.281Z,7.67
2019-05-07T13:49:55.972Z,6.97
2019-05-07T13:52:25.219Z,7.40
2019-05-07T13:54:54.619Z,7.33
2019-05-07T13:57:23.595Z,6.80
2019-05-07T13:59:53.249Z,6.53
2019-05-07T14:02:23.687Z,6.22
2019-05-07T14:04:53.231Z,6.33
2019-05-07T14:07:22.503Z,6.22
2019-05-07T14:09:52.668Z,6.65
2019-05-07T14:12:22.941Z,5.83
2019-05-07T14:14:53.098Z,5.28
2019-05-07T14:17:22.193Z,5.28
2019-05-07T14:19:52.861Z,6.42
2019-05-07T14:22:22.504Z,6.42
2019-05-07T14:24:53.095Z,6.70
2019-05-07T14:27:22.236Z,6.87
2019-05-07T14:29:52.133Z,6.70
2019-05-07T14:32:35.179Z,6.50
2019-05-07T14:35:12.182Z,6.55
2019-05-07T14:37:42.350Z,6.58
2019-05-07T14:40:12.916Z,7.03
2019-05-07T14:42:43.361Z,7.50
2019-05-07T14:45:12.327Z,6.78
2019-05-07T14:47:44.418Z,6.95
2019-05-07T14:50:12.316Z,6.40
2019-05-07T14:52:43.048Z,6.70
2019-05-07T14:55:12.751Z,6.70
2019-05-07T14:57:42.196Z,6.97
2019-05-07T15:00:12.365Z,6.70
2019-05-07T15:02:42.133Z,6.87
2019-05-07T15:05:12.019Z,7.05
2019-05-07T15:07:41.165Z,7.00
2019-05-07T15:10:10.039Z,7.50
2019-05-07T15:12:38.801Z,7.72
2019-05-07T15:15:08.169Z,8.30
2019-05-07T15:17:47.231Z,7.45
2019-05-07T15:20:16.586Z,7.28
2019-05-07T15:22:52.762Z,8.00
2019-05-07T15:25:22.710Z,6.55
2019-05-07T15:27:52.758Z,7.75
2019-05-07T15:30:22.177Z,6.83
2019-05-07T15:32:52.138Z,6.87
2019-05-07T15:35:21.008Z,7.25
2019-05-07T15:37:51.697Z,6.92
2019-05-07T15:40:22.333Z,6.83
2019-05-07T15:42:52.489Z,6.83
2019-05-07T15:45:21.772Z,6.97
2019-05-07T15:47:52.140Z,6.80
2019-05-07T15:50:23.043Z,7.28
2019-05-07T15:52:58.534Z,7.55
2019-05-07T15:55:23.828Z,6.20
2019-05-07T15:57:52.697Z,5.95
2019-05-07T16:00:28.860Z,6.83
2019-05-07T16:02:59.190Z,6.62
2019-05-07T16:05:27.959Z,6.55
2019-05-07T16:07:56.731Z,6.87
2019-05-07T16:10:25.512Z,7.47
2019-05-07T16:12:54.376Z,8.38
2019-05-07T16:15:23.647Z,9.45
2019-05-07T16:18:03.055Z,10.93
2019-05-07T16:20:32.599Z,12.60
2019-05-07T16:23:14.434Z,13.95
2019-05-07T16:25:33.000Z,16.20
2019-05-07T16:28:04.762Z,17.82
2019-05-07T16:30:32.630Z,19.42
2019-05-07T16:33:02.188Z,21.95
2019-05-07T16:35:32.019Z,24.02
2019-05-07T16:38:00.953Z,24.37
2019-05-07T16:40:32.094Z,28.75
2019-05-07T16:43:00.153Z,29.07
2019-05-07T16:45:28.923Z,31.77
2019-05-07T16:48:00.398Z,30.85
2019-05-07T16:50:28.220Z,29.48
2019-05-07T16:52:56.996Z,31.73
2019-05-07T16:55:27.382Z,30.20
2019-05-07T16:58:03.695Z,29.92
2019-05-07T17:00:34.132Z,30.97
2019-05-07T17:03:04.487Z,31.52
2019-05-07T17:05:33.282Z,31.15
2019-05-07T17:08:03.659Z,31.25
2019-05-07T17:10:32.452Z,30.25
2019-05-07T17:13:02.885Z,29.90
2019-05-07T17:15:33.306Z,30.25
2019-05-07T17:18:02.815Z,29.42
2019-05-07T17:20:32.742Z,30.10
2019-05-07T17:23:02.966Z,28.25
2019-05-07T17:25:37.908Z,30.10
2019-05-07T17:28:08.390Z,28.52
2019-05-07T17:30:37.869Z,29.42
2019-05-07T17:33:06.997Z,28.23
2019-05-07T17:35:35.771Z,27.52
2019-05-07T17:38:09.472Z,26.00
2019-05-07T17:40:34.981Z,26.35
2019-05-07T17:43:03.849Z,27.07
2019-05-07T17:45:33.016Z,25.85
2019-05-07T17:48:03.227Z,26.68
2019-05-07T17:50:39.753Z,26.75
2019-05-07T17:53:08.519Z,24.18
2019-05-07T17:55:37.301Z,25.17
2019-05-07T17:58:06.072Z,24.90
2019-05-07T18:00:34.912Z,26.05
2019-05-07T18:03:07.952Z,23.83
2019-05-07T18:05:36.760Z,24.07
2019-05-07T18:08:05.536Z,24.20
2019-05-07T18:10:34.323Z,22.42
2019-05-07T18:13:03.092Z,23.60
2019-05-07T18:15:32.304Z,22.93
2019-05-07T18:18:05.148Z,23.57
2019-05-07T18:20:33.927Z,23.42
2019-05-07T18:23:02.804Z,23.07
2019-05-07T18:25:32.405Z,22.37
2019-05-07T18:28:01.813Z,22.62
2019-05-07T18:30:32.638Z,22.13
2019-05-07T18:33:14.644Z,22.22
2019-05-07T18:35:45.596Z,21.62
2019-05-07T18:38:14.372Z,21.50
2019-05-07T18:40:43.181Z,21.95
2019-05-07T18:43:12.365Z,22.70
2019-05-07T18:45:41.115Z,22.35
2019-05-07T18:48:11.828Z,21.45
2019-05-07T18:50:41.981Z,20.77
2019-05-07T18:53:12.199Z,20.70
2019-05-07T18:55:42.321Z,21.70
2019-05-07T18:58:13.157Z,20.55
2019-05-07T19:00:43.166Z,19.42
2019-05-07T19:03:11.940Z,19.82
2019-05-07T19:05:42.426Z,19.42
2019-05-07T19:08:12.860Z,20.27
2019-05-07T19:10:42.912Z,18.80
2019-05-07T19:13:11.777Z,19.20
2019-05-07T19:15:42.010Z,19.27
2019-05-07T19:18:12.115Z,18.98
2019-05-07T19:20:42.189Z,19.32
2019-05-07T19:23:11.087Z,18.15
2019-05-07T19:25:41.929Z,18.07
2019-05-07T19:28:12.748Z,18.98
2019-05-07T19:30:42.080Z,18.32
2019-05-07T19:33:12.364Z,18.05
2019-05-07T19:35:41.905Z,18.52
2019-05-07T19:38:10.764Z,17.60
2019-05-07T19:40:41.483Z,17.45
2019-05-07T19:43:09.990Z,17.87
2019-05-07T19:45:38.756Z,16.65
2019-05-07T19:48:09.312Z,16.90
2019-05-07T19:50:38.003Z,16.10
2019-05-07T19:53:06.785Z,16.85
2019-05-07T19:55:53.731Z,16.52
2019-05-07T19:58:23.097Z,16.40
2019-05-07T20:00:56.858Z,15.60
2019-05-07T20:03:22.533Z,15.72
2019-05-07T20:05:52.507Z,16.40
2019-05-07T20:08:21.816Z,15.32
2019-05-07T20:11:02.710Z,15.23
2019-05-07T20:13:32.368Z,14.40
2019-05-07T20:16:08.592Z,14.55
2019-05-07T20:18:37.371Z,14.07
2019-05-07T20:21:06.141Z,13.50
2019-05-07T20:23:34.931Z,14.47
2019-05-07T20:26:04.035Z,13.90
2019-05-07T20:28:32.891Z,12.53
2019-05-07T20:31:01.729Z,13.60
2019-05-07T20:33:32.569Z,13.38
2019-05-07T20:36:02.648Z,13.18
2019-05-07T20:38:32.105Z,13.03
2019-05-07T20:41:02.126Z,12.93
2019-05-07T20:43:32.646Z,12.05
2019-05-07T20:46:02.657Z,11.95
2019-05-07T20:48:32.480Z,13.25
2019-05-07T20:51:01.417Z,12.70
2019-05-07T20:53:48.047Z,12.43
2019-05-07T20:56:18.406Z,11.85
2019-05-07T20:58:47.167Z,12.70
2019-05-07T21:01:15.948Z,12.65
2019-05-07T21:03:44.734Z,11.88
2019-05-07T21:06:13.512Z,12.20
2019-05-07T21:08:42.846Z,12.15
2019-05-07T21:11:12.021Z,11.97
2019-05-07T21:13:42.603Z,11.73
2019-05-07T21:16:12.613Z,11.45
2019-05-07T21:18:42.107Z,12.13
2019-05-07T21:21:12.512Z,11.28
2019-05-07T21:23:43.408Z,11.75
2019-05-07T21:26:13.071Z,11.33
2019-05-07T21:28:43.064Z,10.25
2019-05-07T21:31:12.211Z,10.78
2019-05-07T21:33:42.943Z,11.40
2019-05-07T21:36:12.054Z,10.65
2019-05-07T21:38:42.535Z,10.35
2019-05-07T21:41:12.804Z,10.93
2019-05-07T21:43:45.614Z,11.08
2019-05-07T21:46:12.932Z,10.68
2019-05-07T21:48:41.793Z,10.72
2019-05-07T21:51:12.238Z,10.65
2019-05-07T21:54:00.901Z,10.32
2019-05-07T21:56:36.726Z,9.63
2019-05-07T21:59:04.797Z,10.45
2019-05-07T22:01:37.953Z,9.55
2019-05-07T22:04:06.831Z,10.75
2019-05-07T22:06:35.624Z,10.32
2019-05-07T22:09:07.016Z,10.15
2019-05-07T22:11:35.800Z,10.40
2019-05-07T22:14:04.580Z,10.03
2019-05-07T22:16:33.351Z,9.70
2019-05-07T22:19:02.766Z,9.03
2019-05-07T22:21:33.916Z,8.93
2019-05-07T22:24:02.822Z,9.68
2019-05-07T22:26:32.327Z,9.40
2019-05-07T22:29:03.137Z,9.23
2019-05-07T22:31:39.170Z,9.08
2019-05-07T22:34:09.504Z,8.75
2019-05-07T22:36:38.391Z,9.23
2019-05-07T22:39:07.361Z,8.60
2019-05-07T22:41:36.153Z,9.08
2019-05-07T22:44:04.927Z,8.80
2019-05-07T22:46:33.722Z,9.20
2019-05-07T22:49:03.146Z,9.03
2019-05-07T22:51:31.977Z,8.35
2019-05-07T22:54:04.089Z,8.78
2019-05-07T22:56:48.877Z,8.00
2019-05-07T22:59:17.771Z,8.58
2019-05-07T23:01:46.521Z,8.35
2019-05-07T23:04:15.301Z,7.87
2019-05-07T23:06:44.076Z,8.15
2019-05-07T23:09:12.897Z,8.28
2019-05-07T23:11:41.675Z,7.78
2019-05-07T23:14:11.847Z,7.78
2019-05-07T23:16:42.576Z,8.20
2019-05-07T23:19:13.932Z,7.58
2019-05-07T23:21:42.546Z,7.92
2019-05-07T23:24:11.515Z,7.75
2019-05-07T23:26:48.113Z,7.70
2019-05-07T23:29:11.864Z,7.55
2019-05-07T23:31:40.620Z,7.47
2019-05-07T23:34:09.404Z,7.47
2019-05-07T23:36:38.173Z,7.10
2019-05-07T23:39:08.695Z,6.97
2019-05-07T23:41:55.242Z,7.10
2019-05-07T23:44:24.023Z,6.90
2019-05-07T23:46:52.788Z,6.95
2019-05-07T23:49:23.205Z,6.90
2019-05-07T23:51:53.047Z,6.78
2019-05-07T23:54:23.043Z,6.92
2019-05-07T23:57:05.064Z,7.30
2019-05-07T23:59:22.470Z,7.47
